Terminal Aerodrome Forecast
Issued by NWS Greer, SC

Home | Current Version | Previous Version | Text Only | Print | Product List | Glossary On
Versions: 1 2 3 4 5 6 7 8 9 10 11 12 13 14 15 16 17 18 19 20 21 22
000
FTUS42 KGSP 191700 RRA
TAFGSP
TAF
KGSP 191742Z 1918/2018 12011KT P6SM VCSH SCT035 BKN120
     FM200000 08006KT P6SM BKN035
     FM200700 05006KT P6SM BKN029
     FM200900 04006KT P6SM OVC016
     FM201400 04009KT P6SM BKN021
     FM201600 04009KT P6SM BKN035=

USA.gov is the U.S. government's official web portal to all federal, state and local government web resources and services.